Time;durP1;ratioP1;P1;durP2;ratioP2;P2;SDS_P1;SDS_P2;PMS_P1;PMS_P2;Temp;Humidity;BMP_temperature;BMP_pressure;BME280_temperature;BME280_humidity;BME280_pressure;Samples;Min_cycle;Max_cycle;Signal;HPM_P1;HPM_P2
2023/03/22 00:01:15;;;;;;;15.00;7.10;;;9.90;99.90;;;;;;5043476;28;20052;-76
2023/03/22 00:03:41;;;;;;;17.77;7.15;;;9.90;99.90;;;;;;5037293;28;20048;-77
2023/03/22 00:06:08;;;;;;;17.48;7.47;;;9.90;99.90;;;;;;5046347;28;20048;-75
2023/03/22 00:08:34;;;;;;;17.13;7.13;;;9.90;99.90;;;;;;5037760;28;20069;-77
2023/03/22 00:11:00;;;;;;;19.70;7.13;;;9.90;99.90;;;;;;5044803;28;20150;-75
2023/03/22 00:13:25;;;;;;;19.98;5.90;;;9.90;99.90;;;;;;5042664;28;20044;-76
2023/03/22 00:15:51;;;;;;;15.93;6.18;;;10.00;99.90;;;;;;5049293;28;20093;-75
2023/03/22 00:18:18;;;;;;;18.08;5.68;;;9.90;99.90;;;;;;5023471;28;20159;-76
2023/03/22 00:20:48;;;;;;;15.88;5.60;;;9.90;99.90;;;;;;5036171;28;20132;-76
2023/03/22 00:23:14;;;;;;;15.57;5.35;;;9.90;99.90;;;;;;5045994;28;20443;-76
2023/03/22 00:25:40;;;;;;;16.10;4.53;;;9.90;99.90;;;;;;5027345;28;20042;-76
2023/03/22 00:28:06;;;;;;;13.13;4.03;;;9.80;99.90;;;;;;5046849;28;20037;-76
2023/03/22 00:30:31;;;;;;;14.65;3.92;;;9.80;99.90;;;;;;5047126;28;20037;-76
2023/03/22 00:32:57;;;;;;;15.57;3.65;;;9.90;99.90;;;;;;5046798;28;20044;-76
2023/03/22 00:35:23;;;;;;;13.65;3.60;;;9.80;99.90;;;;;;5048581;28;20127;-76
2023/03/22 00:37:50;;;;;;;14.15;3.78;;;9.80;99.90;;;;;;5051984;28;20393;-76
2023/03/22 00:40:16;;;;;;;11.40;3.10;;;9.80;99.90;;;;;;5052768;28;20059;-76
2023/03/22 00:42:42;;;;;;;11.63;3.20;;;9.80;99.90;;;;;;5050307;28;20048;-76
2023/03/22 00:45:10;;;;;;;14.43;3.15;;;9.80;99.90;;;;;;5052248;28;20036;-76
2023/03/22 00:47:37;;;;;;;11.25;3.05;;;9.80;99.90;;;;;;5055614;28;20404;-75
2023/03/22 00:50:04;;;;;;;14.95;2.85;;;9.80;99.90;;;;;;5046714;28;20759;-76
2023/03/22 00:52:30;;;;;;;13.15;2.92;;;9.80;99.90;;;;;;5047409;28;20114;-76
2023/03/22 00:54:56;;;;;;;12.73;3.40;;;9.70;99.90;;;;;;5051850;28;20063;-76
2023/03/22 00:57:22;;;;;;;14.38;3.20;;;9.70;99.90;;;;;;5045182;28;20129;-75
2023/03/22 00:59:48;;;;;;;11.82;3.00;;;9.70;99.90;;;;;;5051217;28;20656;-76
2023/03/22 01:02:14;;;;;;;10.45;2.60;;;9.70;99.90;;;;;;5054282;28;20040;-76
2023/03/22 01:04:45;;;;;;;8.93;2.75;;;9.70;99.90;;;;;;5052573;28;20075;-75
2023/03/22 01:07:20;;;;;;;18.00;3.75;;;9.70;99.90;;;;;;5056239;28;20246;-77
2023/03/22 01:09:47;;;;;;;9.43;2.08;;;9.70;99.90;;;;;;5037579;28;20066;-75
2023/03/22 01:12:14;;;;;;;10.85;2.47;;;9.70;99.90;;;;;;5052989;28;20044;-76
2023/03/22 01:14:40;;;;;;;12.18;2.40;;;9.60;99.90;;;;;;5033984;28;20072;-76
2023/03/22 01:17:06;;;;;;;7.72;2.35;;;9.70;99.90;;;;;;5055349;28;20067;-76
2023/03/22 01:19:36;;;;;;;10.40;1.83;;;9.90;99.90;;;;;;5055580;28;20292;-76
2023/03/22 01:22:04;;;;;;;9.73;2.25;;;9.60;99.90;;;;;;5036063;28;20519;-76
2023/03/22 01:24:30;;;;;;;11.98;2.78;;;9.60;99.90;;;;;;5051509;28;20078;-76
2023/03/22 01:26:56;;;;;;;8.98;2.22;;;9.80;99.90;;;;;;5040109;28;20654;-76
2023/03/22 01:29:23;;;;;;;12.95;2.05;;;9.60;99.90;;;;;;5053565;28;20528;-76
2023/03/22 01:31:49;;;;;;;14.85;2.60;;;9.60;99.90;;;;;;5055548;28;20041;-76
2023/03/22 01:34:15;;;;;;;12.02;2.08;;;9.50;99.90;;;;;;5051270;28;20489;-76
2023/03/22 01:36:40;;;;;;;11.30;2.45;;;9.60;99.90;;;;;;5051799;28;20047;-76
2023/03/22 01:39:07;;;;;;;14.90;2.63;;;9.60;99.90;;;;;;5053727;28;20052;-75
2023/03/22 01:41:36;;;;;;;10.40;2.03;;;9.50;99.90;;;;;;5043058;28;20044;-76
2023/03/22 01:44:19;;;;;;;14.02;1.83;;;9.80;99.90;;;;;;5044305;28;20506;-76
2023/03/22 01:46:47;;;;;;;6.90;1.77;;;9.50;99.90;;;;;;5047870;28;20136;-76
2023/03/22 01:49:26;;;;;;;14.95;1.75;;;9.50;99.90;;;;;;5046895;28;20032;-76
2023/03/22 01:51:54;;;;;;;11.77;1.70;;;9.50;99.90;;;;;;5043219;28;20048;-76
2023/03/22 01:54:42;;;;;;;10.68;1.95;;;9.50;99.90;;;;;;5050068;28;20152;-76
2023/03/22 01:57:08;;;;;;;9.85;1.60;;;9.50;99.90;;;;;;5051968;28;20104;-77
2023/03/22 01:59:35;;;;;;;10.13;1.50;;;9.50;99.90;;;;;;5036868;28;20139;-76
2023/03/22 02:02:03;;;;;;;9.48;1.80;;;9.40;99.90;;;;;;5049313;28;20501;-76
2023/03/22 02:04:34;;;;;;;14.48;2.30;;;9.50;99.90;;;;;;5040441;28;20041;-76
2023/03/22 02:07:08;;;;;;;10.98;2.42;;;9.40;99.90;;;;;;5042502;28;20045;-76
2023/03/22 02:09:40;;;;;;;10.98;1.38;;;9.40;99.90;;;;;;5024731;28;20144;-76
2023/03/22 02:12:12;;;;;;;;;;;9.40;99.90;;;;;;5033287;28;20050;-77
2023/03/22 02:15:03;;;;;;;7.95;1.92;;;9.40;99.90;;;;;;5048878;28;20385;-77
2023/03/22 02:18:15;;;;;;;11.52;1.95;;;9.40;99.90;;;;;;5025460;28;20650;-77
2023/03/22 02:21:02;;;;;;;11.82;2.08;;;9.40;99.90;;;;;;4925485;29;20126;-77
2023/03/22 02:23:36;;;;;;;11.55;1.30;;;9.40;99.90;;;;;;4937319;29;20665;-76
2023/03/22 02:26:11;;;;;;;10.77;2.10;;;9.40;99.90;;;;;;5020870;28;20144;-76
2023/03/22 02:28:36;;;;;;;11.02;1.85;;;9.40;99.90;;;;;;5043966;28;20033;-75
2023/03/22 02:31:47;;;;;;;9.50;2.15;;;9.40;99.90;;;;;;5042426;28;20059;-76
2023/03/22 02:34:28;;;;;;;12.43;1.75;;;9.40;99.90;;;;;;5027125;28;20068;-76
2023/03/22 02:37:03;;;;;;;8.97;1.53;;;9.40;99.90;;;;;;5041437;28;20148;-76
2023/03/22 02:39:36;;;;;;;9.07;1.95;;;9.40;99.90;;;;;;5025520;28;20319;-76
2023/03/22 02:42:23;;;;;;;12.30;2.15;;;9.40;99.90;;;;;;5037763;28;20069;-76
2023/03/22 02:45:05;;;;;;;12.95;2.47;;;9.40;99.90;;;;;;5045364;28;20081;-76
2023/03/22 02:47:42;;;;;;;13.15;2.10;;;9.40;99.90;;;;;;5021201;28;20052;-76
2023/03/22 02:50:28;;;;;;;15.43;2.13;;;9.40;99.90;;;;;;5021218;28;20258;-75
2023/03/22 02:53:22;;;;;;;17.75;2.40;;;9.50;99.90;;;;;;5038473;28;20052;-76
2023/03/22 02:56:18;;;;;;;14.63;1.80;;;9.40;99.90;;;;;;5037844;28;20044;-76
2023/03/22 02:58:46;;;;;;;13.27;1.95;;;9.40;99.90;;;;;;5043608;28;20453;-76
2023/03/22 03:01:26;;;;;;;12.98;2.15;;;9.40;99.90;;;;;;5044967;28;20084;-76
2023/03/22 03:04:01;;;;;;;8.85;1.88;;;9.80;99.90;;;;;;5044909;28;20220;-75
2023/03/22 03:06:31;;;;;;;9.32;1.85;;;9.40;99.90;;;;;;5043051;28;20508;-75
2023/03/22 03:09:01;;;;;;;14.02;2.45;;;9.40;99.90;;;;;;5049345;28;20052;-75
2023/03/22 03:11:27;;;;;;;11.13;1.97;;;9.40;99.90;;;;;;5041139;28;20394;-76
2023/03/22 03:13:53;;;;;;;11.98;1.77;;;9.40;99.90;;;;;;5029662;28;20321;-75
2023/03/22 03:16:29;;;;;;;14.00;1.92;;;9.40;99.90;;;;;;5039571;28;20566;-76
2023/03/22 03:19:11;;;;;;;13.80;2.58;;;9.40;99.90;;;;;;5045419;28;20667;-76
2023/03/22 03:21:41;;;;;;;;;;;9.40;99.90;;;;;;5047908;28;20040;-75
2023/03/22 03:24:19;;;;;;;10.90;1.70;;;9.40;99.90;;;;;;5037428;28;19933;-76
2023/03/22 03:27:07;;;;;;;13.45;2.10;;;9.40;99.90;;;;;;5034696;28;20452;-75
2023/03/22 03:29:42;;;;;;;17.33;2.42;;;9.40;99.90;;;;;;5032954;28;20469;-76
2023/03/22 03:32:26;;;;;;;14.55;2.20;;;9.40;99.90;;;;;;5033552;28;20045;-76
2023/03/22 03:35:21;;;;;;;11.70;2.08;;;9.50;99.90;;;;;;5032854;28;20120;-76
2023/03/22 03:37:57;;;;;;;17.48;2.65;;;9.50;99.90;;;;;;5023841;28;20044;-76
2023/03/22 03:40:31;;;;;;;11.60;2.13;;;9.50;99.90;;;;;;5044149;28;20065;-76
2023/03/22 03:43:01;;;;;;;16.45;3.03;;;9.50;99.90;;;;;;5039041;28;20417;-75
2023/03/22 03:45:27;;;;;;;14.63;2.10;;;9.50;99.90;;;;;;5045554;28;20464;-77
2023/03/22 03:47:58;;;;;;;12.27;2.47;;;9.50;99.90;;;;;;5029428;28;20071;-76
2023/03/22 03:50:25;;;;;;;15.65;2.60;;;9.40;99.90;;;;;;5028130;28;20083;-76
2023/03/22 03:52:52;;;;;;;16.45;2.60;;;9.50;99.90;;;;;;5036962;28;20049;-76
2023/03/22 03:55:20;;;;;;;12.25;2.53;;;9.50;99.90;;;;;;5038504;28;20068;-76
2023/03/22 03:57:48;;;;;;;16.40;2.90;;;9.50;99.90;;;;;;5045003;28;20502;-76
2023/03/22 04:00:15;;;;;;;14.48;3.40;;;9.50;99.90;;;;;;5040843;28;20052;-77
2023/03/22 04:02:42;;;;;;;9.75;2.47;;;9.50;99.90;;;;;;5042441;28;20135;-77
2023/03/22 04:05:09;;;;;;;11.05;2.35;;;9.40;99.90;;;;;;5032874;28;20042;-75
2023/03/22 04:07:36;;;;;;;12.88;2.45;;;9.50;99.90;;;;;;5047739;28;20182;-75
2023/03/22 04:10:02;;;;;;;14.20;2.67;;;9.40;99.90;;;;;;5036287;28;20359;-75
2023/03/22 04:12:28;;;;;;;13.68;2.88;;;9.40;99.90;;;;;;5039654;28;20135;-76
2023/03/22 04:14:54;;;;;;;12.65;2.70;;;9.40;99.90;;;;;;5036393;28;20041;-75
2023/03/22 04:17:24;;;;;;;13.75;2.75;;;9.40;99.90;;;;;;5014364;28;20056;-75
2023/03/22 04:19:55;;;;;;;13.35;2.70;;;9.40;99.90;;;;;;5024933;28;20047;-76
2023/03/22 04:22:22;;;;;;;12.18;2.65;;;9.40;99.90;;;;;;5025911;28;20099;-76
2023/03/22 04:24:51;;;;;;;9.95;2.50;;;9.50;99.90;;;;;;5043416;28;20041;-76
2023/03/22 04:27:18;;;;;;;14.63;2.78;;;9.40;99.90;;;;;;5040647;28;20065;-76
2023/03/22 04:29:47;;;;;;;8.05;2.30;;;9.50;99.90;;;;;;5038910;28;20041;-76
2023/03/22 04:32:23;;;;;;;14.07;2.70;;;9.40;99.90;;;;;;5042064;28;20864;-76
2023/03/22 04:34:50;;;;;;;10.13;2.78;;;9.60;99.90;;;;;;5040356;28;20033;-76
2023/03/22 04:37:18;;;;;;;11.98;2.70;;;9.40;99.90;;;;;;5039453;28;20553;-76
2023/03/22 04:39:44;;;;;;;12.00;2.67;;;9.40;99.90;;;;;;5038959;28;20053;-76
2023/03/22 04:42:11;;;;;;;15.07;2.95;;;9.40;99.90;;;;;;5039969;28;20928;-76
2023/03/22 04:44:37;;;;;;;15.27;3.05;;;9.40;99.90;;;;;;5044397;28;20135;-76
2023/03/22 04:47:03;;;;;;;13.43;3.30;;;9.40;99.90;;;;;;5044682;28;20135;-76
2023/03/22 04:49:30;;;;;;;10.70;3.17;;;9.40;99.90;;;;;;5038263;28;20044;-75
2023/03/22 04:51:56;;;;;;;10.82;2.80;;;9.40;99.90;;;;;;5050444;28;20127;-76
2023/03/22 04:54:23;;;;;;;16.92;3.72;;;9.40;99.90;;;;;;5039301;28;20040;-76
2023/03/22 04:56:49;;;;;;;12.07;3.60;;;9.40;99.90;;;;;;5038876;28;20049;-76
2023/03/22 04:59:19;;;;;;;12.45;3.40;;;9.40;99.90;;;;;;5039865;28;20159;-76
2023/03/22 05:01:45;;;;;;;13.05;4.38;;;9.40;99.90;;;;;;5038554;28;20044;-75
2023/03/22 05:04:12;;;;;;;14.20;4.30;;;9.40;99.90;;;;;;5025496;28;20069;-76
2023/03/22 05:06:37;;;;;;;12.38;4.18;;;9.40;99.90;;;;;;5042362;28;20076;-74
2023/03/22 05:09:03;;;;;;;13.23;5.20;;;9.40;99.90;;;;;;5044361;28;20581;-75
2023/03/22 05:11:29;;;;;;;12.98;4.88;;;9.40;99.90;;;;;;5042677;28;20187;-76
2023/03/22 05:13:55;;;;;;;18.73;5.82;;;9.40;99.90;;;;;;5034768;28;20088;-77
2023/03/22 05:16:21;;;;;;;16.92;5.93;;;9.40;99.90;;;;;;5027123;28;20112;-77
2023/03/22 05:18:48;;;;;;;16.75;5.93;;;9.40;99.90;;;;;;5036758;28;20532;-76
2023/03/22 05:21:20;;;;;;;16.67;6.32;;;9.40;99.90;;;;;;5049051;28;20134;-76
2023/03/22 05:23:48;;;;;;;18.42;6.82;;;9.40;99.90;;;;;;5039845;28;20102;-76
2023/03/22 05:26:14;;;;;;;21.92;7.07;;;9.40;99.90;;;;;;5038057;28;20091;-76
2023/03/22 05:28:41;;;;;;;16.85;7.20;;;9.40;99.90;;;;;;5046113;28;20162;-75
2023/03/22 05:31:09;;;;;;;14.25;7.13;;;9.50;99.90;;;;;;5038325;28;20475;-76
2023/03/22 05:33:34;;;;;;;18.90;6.97;;;9.50;99.90;;;;;;5041171;28;20110;-75
2023/03/22 05:36:01;;;;;;;16.75;7.88;;;9.50;99.90;;;;;;5024453;28;20504;-75
2023/03/22 05:38:27;;;;;;;15.50;7.43;;;9.50;99.90;;;;;;5024689;28;20053;-77
2023/03/22 05:40:53;;;;;;;16.58;7.68;;;9.50;99.90;;;;;;5054865;28;20082;-76
2023/03/22 05:43:19;;;;;;;19.00;8.38;;;9.50;99.90;;;;;;5049960;28;20044;-75
2023/03/22 05:45:45;;;;;;;16.77;8.32;;;9.50;99.90;;;;;;5034837;28;20410;-76
2023/03/22 05:48:11;;;;;;;22.15;9.20;;;9.60;99.90;;;;;;5050876;28;20061;-76
2023/03/22 05:50:37;;;;;;;18.08;7.70;;;9.60;99.90;;;;;;5049336;28;20052;-76
2023/03/22 05:53:03;;;;;;;18.98;7.97;;;9.70;99.90;;;;;;5065519;28;20055;-76
2023/03/22 05:55:30;;;;;;;17.75;8.30;;;9.60;99.90;;;;;;5044051;28;20059;-77
2023/03/22 05:57:57;;;;;;;19.73;9.02;;;9.60;99.90;;;;;;5036153;28;20623;-76
2023/03/22 06:00:24;;;;;;;20.13;8.95;;;9.60;99.90;;;;;;5035816;28;20090;-75
2023/03/22 06:02:55;;;;;;;17.67;9.00;;;9.60;99.90;;;;;;5037158;28;21120;-76
2023/03/22 06:05:21;;;;;;;18.92;8.85;;;9.60;99.90;;;;;;5062436;28;20076;-75
2023/03/22 06:07:47;;;;;;;14.75;8.23;;;10.10;99.90;;;;;;5044342;28;20052;-76
2023/03/22 06:10:14;;;;;;;20.75;8.57;;;9.70;99.90;;;;;;5046408;28;20516;-76
2023/03/22 06:12:40;;;;;;;23.45;8.75;;;9.70;99.90;;;;;;5027921;28;20044;-76
2023/03/22 06:15:07;;;;;;;20.55;8.82;;;9.70;99.90;;;;;;5033201;28;20079;-76
2023/03/22 06:17:33;;;;;;;21.23;9.38;;;9.70;99.90;;;;;;5019686;28;20048;-75
2023/03/22 06:19:58;;;;;;;18.15;9.18;;;9.70;99.90;;;;;;5057982;28;20179;-76
2023/03/22 06:22:24;;;;;;;24.05;9.48;;;9.70;99.90;;;;;;5048561;28;20072;-76
2023/03/22 06:24:50;;;;;;;20.35;9.77;;;9.70;99.90;;;;;;5052624;28;20439;-76
2023/03/22 06:27:17;;;;;;;20.90;9.60;;;9.70;99.90;;;;;;5062291;28;20051;-76
2023/03/22 06:29:43;;;;;;;19.45;9.25;;;9.80;99.90;;;;;;5047266;28;20033;-76
2023/03/22 06:32:09;;;;;;;20.02;9.73;;;9.80;99.90;;;;;;5046676;28;20043;-77
2023/03/22 06:34:35;;;;;;;23.45;9.95;;;9.80;99.90;;;;;;5044782;28;20052;-77
2023/03/22 06:37:01;;;;;;;20.02;9.77;;;9.80;99.90;;;;;;5047313;28;20048;-77
2023/03/22 06:39:27;;;;;;;19.73;9.75;;;9.80;99.90;;;;;;5042515;28;20060;-76
2023/03/22 06:41:53;;;;;;;21.20;9.95;;;9.80;99.90;;;;;;5032965;28;20044;-76
2023/03/22 06:44:18;;;;;;;21.50;9.70;;;9.80;99.90;;;;;;5032109;28;20082;-77
2023/03/22 06:46:44;;;;;;;21.08;9.90;;;9.90;99.90;;;;;;5059265;28;20415;-77
2023/03/22 06:49:10;;;;;;;19.10;9.85;;;9.90;99.90;;;;;;5038042;28;20040;-75
2023/03/22 06:51:36;;;;;;;22.17;10.23;;;10.00;99.90;;;;;;5037256;28;20055;-76
2023/03/22 06:54:01;;;;;;;22.67;10.30;;;9.90;99.90;;;;;;5043396;28;20048;-76
2023/03/22 06:56:27;;;;;;;19.63;10.30;;;9.90;99.90;;;;;;5033404;28;20053;-76
2023/03/22 06:58:53;;;;;;;19.60;10.20;;;10.00;99.90;;;;;;5033611;28;20052;-77
2023/03/22 07:01:20;;;;;;;20.38;9.82;;;10.00;99.90;;;;;;5044455;28;20791;-77
2023/03/22 07:03:47;;;;;;;22.52;10.20;;;10.00;99.90;;;;;;5041244;28;20551;-77
2023/03/22 07:06:12;;;;;;;20.38;10.38;;;10.10;99.90;;;;;;5026947;28;20063;-77
2023/03/22 07:08:38;;;;;;;19.38;9.50;;;10.10;99.90;;;;;;5040176;28;20048;-78
2023/03/22 07:11:04;;;;;;;23.17;10.32;;;10.40;99.90;;;;;;5041145;28;20106;-77
2023/03/22 07:13:31;;;;;;;19.92;10.18;;;10.20;99.90;;;;;;5026687;28;20409;-77
2023/03/22 07:16:00;;;;;;;17.55;9.02;;;10.20;99.90;;;;;;5022248;28;20537;-76
2023/03/22 07:18:28;;;;;;;24.08;11.98;;;10.20;99.90;;;;;;5030902;28;20049;-76
2023/03/22 07:20:54;;;;;;;19.02;10.05;;;10.20;99.90;;;;;;5051631;28;20086;-76
2023/03/22 07:23:20;;;;;;;19.23;9.52;;;10.20;99.90;;;;;;5038064;28;20036;-77
2023/03/22 07:25:47;;;;;;;19.15;9.93;;;10.20;99.90;;;;;;5038050;28;20044;-76
2023/03/22 07:28:13;;;;;;;20.60;9.35;;;10.30;99.90;;;;;;5042129;28;20052;-76
2023/03/22 07:30:39;;;;;;;19.48;9.25;;;10.30;99.90;;;;;;5039106;28;20045;-76
2023/03/22 07:33:06;;;;;;;16.13;8.45;;;10.30;99.90;;;;;;5036038;28;20043;-75
2023/03/22 07:35:33;;;;;;;19.23;8.50;;;10.30;99.90;;;;;;5038314;28;20041;-76
2023/03/22 07:38:00;;;;;;;22.58;8.57;;;10.30;99.90;;;;;;5051171;28;20509;-77
2023/03/22 07:40:26;;;;;;;17.30;8.35;;;10.30;99.90;;;;;;5041088;28;20043;-76
2023/03/22 07:42:52;;;;;;;20.48;8.55;;;10.30;99.90;;;;;;5040438;28;20058;-77
2023/03/22 07:45:19;;;;;;;17.25;7.90;;;10.30;99.90;;;;;;5029082;28;20037;-76
2023/03/22 07:47:45;;;;;;;15.35;8.45;;;10.30;99.90;;;;;;5036543;28;20129;-76
2023/03/22 07:50:12;;;;;;;21.08;9.30;;;10.30;99.90;;;;;;5051713;28;20049;-74
2023/03/22 07:52:39;;;;;;;18.95;8.25;;;10.30;99.90;;;;;;5039244;28;20147;-77
2023/03/22 07:55:06;;;;;;;19.35;7.97;;;10.30;99.90;;;;;;5037104;28;20544;-77
2023/03/22 07:57:32;;;;;;;17.73;7.90;;;10.40;99.90;;;;;;5053768;28;20123;-77
2023/03/22 07:59:57;;;;;;;20.40;8.18;;;10.40;99.90;;;;;;5040990;28;20052;-76
2023/03/22 08:02:23;;;;;;;17.08;7.57;;;10.40;99.90;;;;;;5040207;28;20151;-78
2023/03/22 08:04:51;;;;;;;16.42;7.30;;;10.50;99.90;;;;;;5042664;28;20044;-79
2023/03/22 08:07:17;;;;;;;21.35;7.68;;;10.50;99.90;;;;;;5038465;28;20824;-77
2023/03/22 08:09:44;;;;;;;20.38;7.68;;;10.50;99.90;;;;;;5041986;28;20758;-78
2023/03/22 08:12:10;;;;;;;16.45;6.95;;;10.50;99.90;;;;;;5022575;28;20044;-78
2023/03/22 08:14:36;;;;;;;15.27;7.38;;;10.50;99.90;;;;;;5042286;28;20049;-76
2023/03/22 08:17:04;;;;;;;17.35;7.15;;;10.50;99.90;;;;;;5041770;28;20058;-77
2023/03/22 08:19:30;;;;;;;17.73;6.93;;;10.80;99.90;;;;;;5044240;28;20443;-77
2023/03/22 08:21:56;;;;;;;18.73;6.90;;;10.50;99.90;;;;;;5038720;28;20044;-78
2023/03/22 08:24:22;;;;;;;18.08;6.95;;;10.50;99.90;;;;;;5040226;28;20044;-78
2023/03/22 08:26:51;;;;;;;19.02;7.05;;;10.60;99.90;;;;;;5037129;28;20045;-77
2023/03/22 08:29:17;;;;;;;18.63;6.50;;;10.60;99.90;;;;;;5039645;28;20051;-78
2023/03/22 08:31:43;;;;;;;16.15;5.88;;;10.60;99.90;;;;;;5038658;28;20040;-78
2023/03/22 08:34:09;;;;;;;22.40;6.65;;;10.60;99.90;;;;;;5053713;28;20083;-77
2023/03/22 08:36:36;;;;;;;15.45;5.88;;;10.60;99.90;;;;;;5044915;28;20084;-76
2023/03/22 08:39:02;;;;;;;17.65;5.85;;;10.70;99.90;;;;;;5058368;28;20441;-76
2023/03/22 08:41:28;;;;;;;18.58;6.00;;;10.60;99.90;;;;;;5036933;28;20520;-76
2023/03/22 08:43:54;;;;;;;12.90;5.30;;;10.70;99.90;;;;;;5052677;28;20127;-76
2023/03/22 08:46:19;;;;;;;19.00;6.03;;;10.70;99.90;;;;;;5027225;28;20044;-77
2023/03/22 08:48:49;;;;;;;16.73;6.00;;;10.70;99.90;;;;;;5055462;28;20147;-76
2023/03/22 08:51:23;;;;;;;16.60;5.78;;;10.70;99.90;;;;;;5023898;28;20501;-77
2023/03/22 08:53:49;;;;;;;21.42;6.80;;;10.80;99.90;;;;;;5041565;28;20114;-76
2023/03/22 08:56:19;;;;;;;17.45;5.72;;;11.10;99.90;;;;;;5043433;28;20181;-77
2023/03/22 08:58:45;;;;;;;13.63;5.18;;;10.80;99.90;;;;;;5035903;28;20041;-77
2023/03/22 09:01:13;;;;;;;18.92;5.78;;;10.90;99.90;;;;;;5057061;28;20719;-78
2023/03/22 09:03:39;;;;;;;13.95;5.32;;;10.90;99.90;;;;;;5024193;28;20055;-76
2023/03/22 09:06:05;;;;;;;13.48;5.07;;;10.80;99.90;;;;;;5027808;28;20589;-75
2023/03/22 09:08:32;;;;;;;13.82;4.97;;;10.90;99.90;;;;;;5036433;28;20378;-77
2023/03/22 09:10:58;;;;;;;18.15;4.80;;;10.90;99.90;;;;;;5057616;28;20045;-76
2023/03/22 09:13:24;;;;;;;20.17;5.38;;;10.90;99.90;;;;;;5022537;28;20040;-76
2023/03/22 09:15:51;;;;;;;14.93;4.85;;;10.90;99.90;;;;;;5059642;28;20040;-76
2023/03/22 09:18:17;;;;;;;12.98;4.80;;;10.90;99.90;;;;;;5040427;28;20136;-75
2023/03/22 09:20:44;;;;;;;11.23;4.15;;;10.90;99.90;;;;;;5043458;28;20386;-78
2023/03/22 09:23:11;;;;;;;12.90;3.97;;;10.90;99.90;;;;;;5040805;28;20043;-77
2023/03/22 09:25:37;;;;;;;15.88;4.72;;;10.90;99.90;;;;;;5057766;28;20090;-76
2023/03/22 09:28:03;;;;;;;15.52;4.50;;;10.90;99.90;;;;;;5043340;28;20532;-77
2023/03/22 09:30:29;;;;;;;12.23;3.83;;;10.90;99.90;;;;;;5044340;28;20374;-77
2023/03/22 09:32:55;;;;;;;11.93;3.55;;;10.90;99.90;;;;;;5026730;28;20082;-76
2023/03/22 09:35:21;;;;;;;13.20;4.00;;;10.90;99.90;;;;;;5026704;28;20090;-76
2023/03/22 09:37:48;;;;;;;16.77;3.80;;;10.90;99.90;;;;;;5042763;28;20319;-75
2023/03/22 09:40:16;;;;;;;16.05;4.20;;;10.90;99.90;;;;;;5021326;28;20083;-77
2023/03/22 09:42:45;;;;;;;15.95;4.10;;;10.90;99.90;;;;;;5027763;28;20548;-76
2023/03/22 09:45:17;;;;;;;16.10;4.68;;;10.90;99.90;;;;;;5058608;28;20124;-77
2023/03/22 09:47:47;;;;;;;14.57;3.95;;;10.90;99.90;;;;;;5030223;28;20485;-78
2023/03/22 09:50:19;;;;;;;16.23;3.92;;;10.90;99.90;;;;;;5061715;28;20040;-75
2023/03/22 09:52:45;;;;;;;12.65;4.20;;;10.90;99.90;;;;;;5042967;28;20052;-77
2023/03/22 09:55:38;;;;;;;11.75;3.42;;;10.80;99.90;;;;;;5047664;28;20093;-76
2023/03/22 09:58:31;;;;;;;14.40;3.50;;;10.50;99.90;;;;;;5035992;28;20059;-75
2023/03/22 10:01:13;;;;;;;14.73;3.55;;;10.80;99.90;;;;;;5046697;28;20113;-77
2023/03/22 10:03:44;;;;;;;;;;;10.70;99.90;;;;;;5048172;28;20052;-75
2023/03/22 10:06:17;;;;;;;;;;;10.70;99.90;;;;;;5047116;28;19928;-77
2023/03/22 10:09:05;;;;;;;10.93;3.00;;;10.60;99.90;;;;;;5044089;28;20012;-77
2023/03/22 10:11:45;;;;;;;11.85;3.53;;;10.60;99.90;;;;;;5061662;28;20059;-77
2023/03/22 10:14:19;;;;;;;12.48;3.83;;;10.60;99.90;;;;;;5047073;28;20064;-76
2023/03/22 10:16:46;;;;;;;11.32;3.42;;;10.50;99.90;;;;;;5063823;28;20076;-76
2023/03/22 10:19:26;;;;;;;11.70;3.50;;;10.50;99.90;;;;;;5061104;28;20586;-76
2023/03/22 10:21:56;;;;;;;16.83;4.10;;;10.50;99.90;;;;;;5047051;28;20052;-76
2023/03/22 10:24:35;;;;;;;13.40;3.83;;;10.50;99.90;;;;;;5046445;28;20159;-75
2023/03/22 10:27:01;;;;;;;13.73;3.78;;;10.40;99.90;;;;;;5062958;28;20119;-75
2023/03/22 10:29:38;;;;;;;13.57;3.60;;;10.40;99.90;;;;;;5044450;28;20059;-75
2023/03/22 10:32:38;;;;;;;9.25;4.00;;;10.40;99.90;;;;;;5060614;28;20535;-74
2023/03/22 10:35:04;;;;;;;12.63;4.88;;;10.40;99.90;;;;;;4982198;28;20205;-76
2023/03/22 10:37:35;;;;;;;11.68;3.75;;;10.30;99.90;;;;;;5046741;28;20045;-75
2023/03/22 10:40:05;;;;;;;11.25;4.05;;;10.30;99.90;;;;;;5054575;28;20105;-75
2023/03/22 10:42:34;;;;;;;9.70;3.47;;;10.30;99.90;;;;;;5037879;28;20078;-75
2023/03/22 10:45:02;;;;;;;11.43;3.58;;;10.30;99.90;;;;;;5040170;28;20700;-74
2023/03/22 10:47:45;;;;;;;11.70;3.80;;;10.30;99.90;;;;;;5035404;28;20063;-75
2023/03/22 10:50:25;;;;;;;8.45;3.60;;;10.20;99.90;;;;;;5037608;28;20501;-74
2023/03/22 10:53:05;;;;;;;16.92;4.18;;;10.20;99.90;;;;;;5032666;28;20056;-75
2023/03/22 10:55:31;;;;;;;10.38;3.35;;;10.20;99.90;;;;;;5034784;28;20049;-74
2023/03/22 10:58:11;;;;;;;11.65;3.40;;;10.20;99.90;;;;;;5036902;28;20056;-75
2023/03/22 11:00:37;;;;;;;15.30;4.05;;;10.20;99.90;;;;;;5032617;28;20048;-73
2023/03/22 11:03:05;;;;;;;14.02;3.50;;;10.20;99.90;;;;;;5045537;28;20036;-75
2023/03/22 11:05:30;;;;;;;13.80;3.78;;;10.20;99.90;;;;;;5024332;28;20044;-74
2023/03/22 11:07:57;;;;;;;10.93;3.90;;;10.30;99.90;;;;;;5027892;28;20056;-74
2023/03/22 11:10:26;;;;;;;10.15;3.80;;;10.20;99.90;;;;;;5037535;28;20687;-76
2023/03/22 11:13:07;;;;;;;13.80;5.00;;;10.20;99.90;;;;;;5031326;28;20562;-76
2023/03/22 11:15:40;;;;;;;8.88;3.75;;;10.20;99.90;;;;;;5031715;28;20048;-75
2023/03/22 11:18:16;;;;;;;12.18;4.35;;;10.20;99.90;;;;;;5032558;28;20460;-77
2023/03/22 11:20:56;;;;;;;9.60;3.60;;;10.20;99.90;;;;;;5050920;28;20518;-76
2023/03/22 11:23:24;;;;;;;13.60;3.67;;;10.20;99.90;;;;;;5028314;28;20186;-76
2023/03/22 11:25:51;;;;;;;10.57;3.70;;;10.20;99.90;;;;;;5029280;28;20065;-77
2023/03/22 11:28:33;;;;;;;10.40;3.83;;;10.30;99.90;;;;;;5010909;28;20044;-76
2023/03/22 11:31:11;;;;;;;9.25;3.97;;;10.20;99.90;;;;;;5030740;28;20044;-77
2023/03/22 11:33:44;;;;;;;11.73;3.92;;;10.30;99.90;;;;;;5016919;28;20037;-76
2023/03/22 11:36:17;;;;;;;17.27;4.35;;;10.30;99.90;;;;;;5033527;28;20768;-75
2023/03/22 11:38:44;;;;;;;14.77;4.15;;;10.20;99.90;;;;;;5033826;28;20064;-76
2023/03/22 11:41:13;;;;;;;9.40;3.47;;;10.30;99.90;;;;;;5027770;28;20185;-76
2023/03/22 11:43:42;;;;;;;11.93;3.83;;;10.30;99.90;;;;;;5024406;28;20060;-75
2023/03/22 11:46:11;;;;;;;9.80;4.45;;;10.30;99.90;;;;;;5038856;28;20125;-75
2023/03/22 11:48:40;;;;;;;11.68;4.18;;;10.30;99.90;;;;;;5034920;28;20052;-76
2023/03/22 11:51:12;;;;;;;12.38;4.10;;;10.30;99.90;;;;;;5038113;28;20098;-75
2023/03/22 11:53:47;;;;;;;10.00;3.95;;;10.30;99.90;;;;;;5035370;28;20063;-77
2023/03/22 11:56:20;;;;;;;8.68;4.10;;;10.30;99.90;;;;;;5036429;28;20705;-76
2023/03/22 11:58:46;;;;;;;15.65;4.20;;;10.40;99.90;;;;;;5017768;28;20608;-76
2023/03/22 12:01:44;;;;;;;12.50;3.67;;;10.40;99.90;;;;;;5022129;28;20037;-76
2023/03/22 12:04:19;;;;;;;9.48;3.70;;;10.40;99.90;;;;;;5006452;28;20067;-75
2023/03/22 12:06:45;;;;;;;11.25;3.97;;;10.40;99.90;;;;;;5039718;28;20079;-76
2023/03/22 12:09:40;;;;;;;9.40;3.42;;;10.40;99.90;;;;;;5041078;28;20048;-76
2023/03/22 12:12:14;;;;;;;12.85;4.32;;;10.40;99.90;;;;;;5020188;28;20045;-77
2023/03/22 12:15:12;;;;;;;10.90;3.20;;;10.40;99.90;;;;;;5023515;28;20041;-78
2023/03/22 12:17:41;;;;;;;8.23;3.40;;;10.40;99.90;;;;;;5009883;28;20122;-76
2023/03/22 12:20:46;;;;;;;9.88;3.75;;;10.40;99.90;;;;;;5038205;28;20040;-77
2023/03/22 12:23:20;;;;;;;9.93;3.60;;;10.40;99.90;;;;;;5036827;28;20053;-77
2023/03/22 12:25:58;;;;;;;12.88;3.92;;;10.40;99.90;;;;;;5038010;28;20457;-76
2023/03/22 12:28:48;;;;;;;10.02;3.70;;;10.40;99.90;;;;;;5039267;28;20124;-76
2023/03/22 12:31:22;;;;;;;11.45;3.45;;;10.40;99.90;;;;;;5036523;28;20139;-76
2023/03/22 12:33:52;;;;;;;15.02;3.72;;;10.40;99.90;;;;;;5018812;28;20057;-76
2023/03/22 12:36:25;;;;;;;10.45;3.50;;;10.50;99.90;;;;;;5039733;28;20044;-77
2023/03/22 12:38:55;;;;;;;10.45;3.75;;;10.50;99.90;;;;;;5035964;28;20175;-78
2023/03/22 12:41:39;;;;;;;10.68;3.97;;;10.40;99.90;;;;;;5038060;28;20580;-77
2023/03/22 12:44:32;;;;;;;11.50;3.65;;;10.50;99.90;;;;;;5034188;28;20133;-76
2023/03/22 12:47:04;;;;;;;14.02;4.10;;;10.40;99.90;;;;;;5033327;28;20060;-76
2023/03/22 12:49:57;;;;;;;12.40;3.60;;;10.40;99.90;;;;;;5018403;28;20089;-76
2023/03/22 12:52:44;;;;;;;8.88;3.40;;;10.40;99.90;;;;;;5036220;28;20049;-77
2023/03/22 12:55:23;;;;;;;11.55;3.88;;;10.30;99.90;;;;;;5035611;28;20049;-76
2023/03/22 12:57:53;;;;;;;9.82;4.05;;;10.30;99.90;;;;;;5037179;28;20528;-76
2023/03/22 13:00:26;;;;;;;9.95;3.75;;;10.40;99.90;;;;;;5032592;28;20132;-76